Time;durP1;ratioP1;P1;durP2;ratioP2;P2;SDS_P1;SDS_P2;PMS_P1;PMS_P2;Temp;Humidity;BMP_temperature;BMP_pressure;BME280_temperature;BME280_humidity;BME280_pressure;Samples;Min_cycle;Max_cycle;Signal;HPM_P1;HPM_P2
2021/06/03 00:01:38;;;;;;;3.33;2.97;;;;;;;21.15;71.45;100463.51;639169;225;23948;-76
2021/06/03 00:04:06;;;;;;;3.40;3.03;;;;;;;20.93;71.95;100471.37;620558;229;24985;-76
2021/06/03 00:06:34;;;;;;;3.33;3.00;;;;;;;20.83;72.25;100474.95;620406;229;23973;-76
2021/06/03 00:09:02;;;;;;;3.17;2.73;;;;;;;20.69;72.65;100478.95;617668;230;23907;-76
2021/06/03 00:11:30;;;;;;;3.90;3.13;;;;;;;20.73;72.70;100484.13;619913;229;23960;-77
2021/06/03 00:13:58;;;;;;;6.60;2.67;;;;;;;20.77;73.17;100478.42;627811;227;23955;-75
2021/06/03 00:16:31;;;;;;;2.80;2.43;;;;;;;20.73;73.41;100481.48;624697;228;23861;-76
2021/06/03 00:18:54;;;;;;;3.10;2.80;;;;;;;20.67;73.01;100481.47;633815;225;23866;-76
2021/06/03 00:21:22;;;;;;;4.00;2.70;;;;;;;20.78;73.33;100481.37;637147;225;23952;-76
2021/06/03 00:23:51;;;;;;;4.10;2.87;;;;;;;20.59;73.21;100479.88;634771;225;24853;-76
2021/06/03 00:26:18;;;;;;;4.70;3.40;;;;;;;20.58;74.00;100484.85;638496;225;23974;-77
2021/06/03 00:28:46;;;;;;;5.20;2.93;;;;;;;20.55;73.24;100482.62;635577;224;23874;-76
2021/06/03 00:31:14;;;;;;;4.37;3.67;;;;;;;20.75;72.77;100479.45;635595;225;25014;-76
2021/06/03 00:33:42;;;;;;;4.53;3.17;;;;;;;20.59;73.51;100483.02;619778;229;24265;-77
2021/06/03 00:36:10;;;;;;;3.20;2.90;;;;;;;20.64;73.83;100481.38;633535;225;23956;-76
2021/06/03 00:38:38;;;;;;;4.13;3.00;;;;;;;20.52;74.53;100485.65;639144;225;23872;-76
2021/06/03 00:41:06;;;;;;;4.87;2.73;;;;;;;20.47;73.91;100489.93;624799;226;23836;-75
2021/06/03 00:43:34;;;;;;;5.80;2.80;;;;;;;20.37;74.21;100489.78;618916;230;23991;-76
2021/06/03 00:46:01;;;;;;;4.60;2.87;;;;;;;20.27;75.35;100492.03;621245;230;23982;-76
2021/06/03 00:48:29;;;;;;;4.97;3.13;;;;;;;20.27;74.97;100492.50;634721;225;23955;-76
2021/06/03 00:50:57;;;;;;;5.03;2.90;;;;;;;20.23;75.47;100492.61;639989;223;23952;-76
2021/06/03 00:53:25;;;;;;;6.67;3.30;;;;;;;20.32;74.81;100494.06;634782;225;23869;-76
2021/06/03 00:55:53;;;;;;;4.95;3.05;;;;;;;20.91;72.43;100487.97;618224;229;32928;-76
2021/06/03 00:58:21;;;;;;;3.30;2.90;;;;;;;20.33;74.68;100493.03;635467;225;23747;-76
2021/06/03 01:00:49;;;;;;;3.80;3.27;;;;;;;20.33;75.15;100494.36;635483;225;26153;-76
2021/06/03 01:03:17;;;;;;;5.70;3.27;;;;;;;20.32;75.22;100499.34;635081;225;23868;-76
2021/06/03 01:05:45;;;;;;;3.50;2.97;;;;;;;20.34;74.67;100495.98;635956;225;23961;-76
2021/06/03 01:08:13;;;;;;;3.90;3.00;;;;;;;20.26;75.20;100500.94;637524;225;23962;-76
2021/06/03 01:10:42;;;;;;;4.10;3.20;;;;;;;20.31;75.17;100496.39;636453;225;23942;-76
2021/06/03 01:13:10;;;;;;;4.63;3.03;;;;;;;20.26;74.81;100499.62;634421;225;23953;-76
2021/06/03 01:15:39;;;;;;;3.70;2.70;;;;;;;20.16;75.27;100504.50;636498;225;23952;-76
2021/06/03 01:18:07;;;;;;;5.37;3.00;;;;;;;20.20;75.93;100505.72;635025;225;28101;-76
2021/06/03 01:20:35;;;;;;;4.27;3.47;;;;;;;20.22;75.21;100505.52;637355;225;23928;-75
2021/06/03 01:23:04;;;;;;;3.30;3.00;;;;;;;20.18;75.46;100505.11;635349;225;23871;-76
2021/06/03 01:25:32;;;;;;;3.90;3.00;;;;;;;20.74;74.32;100494.20;623940;225;32881;-76
2021/06/03 01:28:00;;;;;;;3.60;3.17;;;;;;;20.23;75.84;100507.95;632045;225;22698;-76
2021/06/03 01:30:29;;;;;;;3.50;2.97;;;;;;;20.15;75.48;100510.30;633355;225;23938;-76
2021/06/03 01:32:57;;;;;;;3.40;3.10;;;;;;;20.02;76.11;100512.90;636223;225;23939;-76
2021/06/03 01:35:25;;;;;;;5.60;3.50;;;;;;;20.00;77.69;100512.80;621226;229;23873;-76
2021/06/03 01:37:53;;;;;;;4.17;3.30;;;;;;;19.76;78.40;100518.09;624556;230;24049;-76
2021/06/03 01:40:21;;;;;;;3.77;3.47;;;;;;;19.93;77.68;100519.88;615562;230;27110;-76
2021/06/03 01:42:49;;;;;;;3.00;2.70;;;;;;;19.83;78.39;100518.91;625152;229;24003;-75
2021/06/03 01:45:17;;;;;;;5.73;3.40;;;;;;;19.70;78.71;100515.72;632923;225;23965;-76
2021/06/03 01:47:45;;;;;;;8.33;3.43;;;;;;;19.60;79.43;100519.76;635125;225;23864;-76
2021/06/03 01:50:13;;;;;;;6.10;4.20;;;;;;;19.53;79.13;100519.68;616639;229;23971;-76
2021/06/03 01:52:41;;;;;;;4.00;3.53;;;;;;;19.62;78.71;100518.55;627347;228;24034;-76
2021/06/03 01:55:09;;;;;;;4.20;3.40;;;;;;;19.64;78.90;100510.43;637503;225;23943;-76
2021/06/03 01:57:37;;;;;;;5.67;4.30;;;;;;;19.65;78.83;100514.70;632399;225;23872;-76
2021/06/03 02:00:07;;;;;;;4.27;3.50;;;;;;;19.65;79.41;100519.97;623158;229;23893;-76
2021/06/03 02:02:35;;;;;;;3.57;3.27;;;;;;;19.74;78.56;100519.62;632800;224;23925;-76
2021/06/03 02:05:03;;;;;;;5.30;3.57;;;;;;;19.82;77.94;100521.25;636172;225;26003;-76
2021/06/03 02:07:31;;;;;;;5.65;4.10;;;;;;;20.37;75.98;100508.28;627972;225;32910;-76
2021/06/03 02:09:59;;;;;;;5.53;3.60;;;;;;;19.97;78.33;100516.62;632135;221;22819;-76
2021/06/03 02:12:27;;;;;;;6.03;3.67;;;;;;;20.00;77.71;100517.58;634983;224;23898;-76
2021/06/03 02:14:55;;;;;;;3.97;3.43;;;;;;;19.90;78.43;100522.41;637926;225;23920;-76
2021/06/03 02:17:23;;;;;;;4.63;3.37;;;;;;;19.82;78.80;100529.98;624551;230;23995;-76
2021/06/03 02:19:52;;;;;;;4.07;3.37;;;;;;;19.60;79.32;100527.67;623521;230;28184;-76
2021/06/03 02:22:21;;;;;;;3.90;3.50;;;;;;;19.69;79.45;100533.08;639071;225;23956;-75
2021/06/03 02:24:49;;;;;;;4.17;3.80;;;;;;;19.46;80.17;100539.45;637259;225;23864;-76
2021/06/03 02:27:17;;;;;;;6.93;4.20;;;;;;;19.43;80.36;100539.84;620752;229;24278;-76
2021/06/03 02:29:45;;;;;;;4.03;3.63;;;;;;;19.43;80.18;100538.53;630346;225;27230;-75
2021/06/03 02:32:13;;;;;;;4.30;3.90;;;;;;;19.61;79.57;100545.14;625732;225;43610;-75
2021/06/03 02:34:41;;;;;;;4.43;4.03;;;;;;;19.23;81.93;100544.98;625994;229;22716;-75
2021/06/03 02:37:10;;;;;;;7.20;4.20;;;;;;;19.27;81.71;100552.00;635036;225;23880;-75
2021/06/03 02:39:37;;;;;;;4.20;3.80;;;;;;;19.81;79.16;100549.48;632166;225;32830;-76
2021/06/03 02:42:06;;;;;;;8.00;3.90;;;;;;;19.55;79.79;100546.71;633078;225;22735;-76
2021/06/03 02:44:34;;;;;;;4.15;3.75;;;;;;;19.85;78.86;100544.64;609692;229;32818;-76
2021/06/03 02:47:02;;;;;;;9.30;3.87;;;;;;;19.21;81.30;100548.83;624825;228;22826;-75
2021/06/03 02:49:30;;;;;;;6.10;4.60;;;;;;;18.95;83.25;100554.22;635632;225;23847;-76
2021/06/03 02:52:01;;;;;;;4.40;4.10;;;;;;;18.96;82.58;100556.36;624177;228;23857;-76
2021/06/03 02:54:27;;;;;;;5.63;3.97;;;;;;;19.29;81.49;100557.92;622189;227;33169;-76
2021/06/03 02:56:55;;;;;;;4.20;3.83;;;;;;;19.16;82.02;100561.28;635953;225;23832;-76
2021/06/03 02:59:23;;;;;;;4.80;4.40;;;;;;;19.04;82.09;100558.05;626271;228;23947;-76
2021/06/03 03:01:51;;;;;;;6.00;4.40;;;;;;;19.02;82.63;100558.25;636023;225;23893;-76
2021/06/03 03:04:19;;;;;;;6.73;4.23;;;;;;;18.94;83.84;100563.14;637387;225;23919;-75
2021/06/03 03:06:47;;;;;;;4.90;4.33;;;;;;;18.91;83.90;100564.03;634573;225;23934;-75
2021/06/03 03:09:15;;;;;;;8.93;4.33;;;;;;;18.89;84.17;100564.23;637875;225;23891;-76
2021/06/03 03:11:43;;;;;;;6.33;4.10;;;;;;;18.83;84.40;100570.24;633471;226;23968;-76
2021/06/03 03:14:11;;;;;;;8.38;4.37;;;;;;;19.42;82.72;100557.16;616514;227;32807;-75
2021/06/03 03:16:39;;;;;;;6.60;4.53;;;;;;;18.94;83.97;100564.46;628804;228;22778;-75
2021/06/03 03:19:07;;;;;;;4.73;4.23;;;;;;;18.77;83.94;100571.02;629004;228;23957;-75
2021/06/03 03:21:35;;;;;;;5.10;4.20;;;;;;;18.73;84.34;100565.00;620879;230;23942;-76
2021/06/03 03:24:03;;;;;;;4.60;4.20;;;;;;;18.75;85.04;100570.39;631237;225;24964;-76
2021/06/03 03:26:30;;;;;;;4.63;4.23;;;;;;;18.77;84.67;100567.56;619128;229;24003;-76
2021/06/03 03:28:58;;;;;;;5.47;4.50;;;;;;;18.81;83.91;100568.30;629368;226;30290;-76
2021/06/03 03:31:26;;;;;;;5.20;4.17;;;;;;;18.67;84.54;100568.69;638000;225;23944;-76
2021/06/03 03:33:56;;;;;;;6.53;4.40;;;;;;;18.72;84.39;100573.41;623980;228;23974;-75
2021/06/03 03:36:22;;;;;;;5.93;4.00;;;;;;;18.78;84.00;100573.96;616222;229;23936;-76
2021/06/03 03:38:50;;;;;;;6.30;3.80;;;;;;;18.79;84.87;100574.27;618073;229;23964;-76
2021/06/03 03:41:18;;;;;;;6.20;4.20;;;;;;;18.57;85.08;100573.92;638227;225;23837;-75
2021/06/03 03:43:46;;;;;;;5.60;4.70;;;;;;;18.57;86.45;100580.51;624071;229;24968;-76
2021/06/03 03:46:14;;;;;;;6.30;4.50;;;;;;;18.58;86.42;100575.55;624427;228;23940;-76
2021/06/03 03:48:42;;;;;;;4.87;4.47;;;;;;;18.55;86.43;100571.98;638435;225;23870;-75
2021/06/03 03:51:13;;;;;;;6.43;4.50;;;;;;;18.60;85.82;100571.75;638992;225;23853;-75
2021/06/03 03:53:38;;;;;;;5.43;4.90;;;;;;;18.73;85.74;100571.59;637423;225;23970;-75
2021/06/03 03:56:06;;;;;;;4.60;4.20;;;;;;;18.72;85.79;100573.89;624399;229;24310;-76
2021/06/03 03:58:37;;;;;;;6.20;4.30;;;;;;;19.21;83.20;100572.06;631617;225;32916;-76
2021/06/03 04:01:02;;;;;;;5.20;4.47;;;;;;;18.92;83.74;100571.75;632383;226;24927;-76
2021/06/03 04:03:30;;;;;;;5.20;4.33;;;;;;;18.90;84.60;100575.08;625090;229;24857;-76
2021/06/03 04:05:58;;;;;;;6.50;4.17;;;;;;;18.82;84.59;100578.34;617136;230;24946;-75
2021/06/03 04:08:25;;;;;;;6.50;4.23;;;;;;;18.72;84.81;100584.43;630957;225;23979;-76
2021/06/03 04:10:53;;;;;;;5.00;4.47;;;;;;;18.62;85.41;100590.00;623231;230;23999;-75
2021/06/03 04:13:21;;;;;;;6.67;4.90;;;;;;;18.49;86.24;100589.37;635602;225;23953;-75
2021/06/03 04:15:49;;;;;;;8.00;4.30;;;;;;;18.51;86.39;100581.27;633415;226;23980;-76
2021/06/03 04:18:17;;;;;;;5.93;4.60;;;;;;;18.54;86.05;100592.75;632511;225;23836;-75
2021/06/03 04:20:45;;;;;;;4.27;3.87;;;;;;;18.62;86.20;100596.09;628894;227;27054;-76
2021/06/03 04:23:13;;;;;;;4.70;4.20;;;;;;;18.60;86.29;100601.23;629450;228;23950;-76
2021/06/03 04:25:41;;;;;;;6.17;4.17;;;;;;;18.93;85.16;100598.42;629504;226;23857;-76
2021/06/03 04:28:08;;;;;;;5.37;4.77;;;;;;;18.68;85.26;100596.67;629984;225;24872;-76
2021/06/03 04:30:39;;;;;;;5.10;4.57;;;;;;;18.71;85.12;100604.70;627246;226;24847;-76
2021/06/03 04:33:05;;;;;;;5.17;4.70;;;;;;;18.77;85.65;100613.69;632209;225;23843;-75
2021/06/03 04:35:33;;;;;;;6.37;4.67;;;;;;;18.71;85.61;100615.73;631359;225;23922;-75
2021/06/03 04:38:00;;;;;;;5.37;4.87;;;;;;;18.53;85.91;100616.96;620328;229;23922;-75
2021/06/03 04:40:28;;;;;;;5.17;4.63;;;;;;;18.51;86.80;100615.02;625639;230;28035;-75
2021/06/03 04:42:57;;;;;;;9.33;5.00;;;;;;;18.44;87.54;100618.57;634837;221;23943;-76
2021/06/03 04:45:25;;;;;;;8.30;4.67;;;;;;;18.42;86.51;100620.08;630786;225;27073;-76
2021/06/03 04:47:53;;;;;;;6.10;4.87;;;;;;;18.62;85.55;100616.34;622333;229;28355;-75
2021/06/03 04:50:21;;;;;;;7.03;4.33;;;;;;;18.81;85.37;100619.70;629947;225;24973;-75
2021/06/03 04:52:49;;;;;;;5.22;4.72;;;;;;;19.36;82.58;100612.84;632711;225;32805;-75
2021/06/03 04:55:18;;;;;;;6.40;5.10;;;;;;;19.07;84.51;100616.98;634727;225;22796;-76
2021/06/03 04:57:46;;;;;;;7.70;5.13;;;;;;;18.98;84.01;100619.74;635850;225;23856;-75
2021/06/03 05:00:14;;;;;;;6.92;5.20;;;;;;;19.51;82.46;100609.59;631998;225;32842;-75
2021/06/03 05:02:42;;;;;;;4.67;4.27;;;;;;;19.65;82.33;100612.34;636707;226;22725;-76
2021/06/03 05:05:12;;;;;;;5.17;4.67;;;;;;;19.94;80.72;100610.77;633321;226;23935;-76
2021/06/03 05:07:39;;;;;;;8.40;4.90;;;;;;;20.17;79.58;100613.10;635877;226;23842;-76
2021/06/03 05:10:08;;;;;;;6.20;4.47;;;;;;;20.67;77.78;100606.53;635012;225;24215;-76
2021/06/03 05:12:36;;;;;;;5.57;4.50;;;;;;;21.54;75.57;100602.88;623600;229;23950;-76
2021/06/03 05:15:05;;;;;;;6.62;4.70;;;;;;;22.29;73.64;100601.91;615781;230;33276;-76
2021/06/03 05:17:33;;;;;;;4.90;4.00;;;;;;;22.38;71.74;100600.64;630084;226;22727;-76
2021/06/03 05:20:01;;;;;;;5.00;4.27;;;;;;;22.36;72.21;100603.98;621786;229;23997;-75
2021/06/03 05:22:28;;;;;;;6.07;4.13;;;;;;;22.34;71.93;100602.58;620596;229;23892;-75
2021/06/03 05:24:56;;;;;;;4.50;4.10;;;;;;;21.96;73.39;100615.28;618581;229;24895;-76
2021/06/03 05:27:24;;;;;;;4.90;4.40;;;;;;;22.04;73.22;100619.52;620159;229;23942;-76
2021/06/03 05:29:52;;;;;;;7.10;4.47;;;;;;;21.76;74.33;100627.77;613908;230;23976;-76
2021/06/03 05:32:20;;;;;;;4.60;4.23;;;;;;;21.96;73.37;100629.02;636692;225;23947;-75
2021/06/03 05:34:48;;;;;;;7.00;4.03;;;;;;;21.62;74.62;100634.92;633417;225;23950;-76
2021/06/03 05:37:16;;;;;;;4.27;3.87;;;;;;;21.55;74.57;100640.25;619651;229;25090;-76
2021/06/03 05:39:44;;;;;;;5.63;4.50;;;;;;;21.94;74.10;100634.01;631156;225;24888;-75
2021/06/03 05:42:12;;;;;;;5.30;4.60;;;;;;;22.66;72.83;100632.56;618701;229;32911;-76
2021/06/03 05:44:40;;;;;;;7.42;4.05;;;;;;;22.75;72.54;100633.94;633830;224;32750;-76
2021/06/03 05:47:08;;;;;;;5.67;3.53;;;;;;;22.39;72.95;100646.52;634500;225;22703;-76
2021/06/03 05:49:36;;;;;;;4.00;3.60;;;;;;;22.32;72.50;100645.20;637439;225;23901;-76
2021/06/03 05:52:05;;;;;;;6.10;4.53;;;;;;;22.59;72.50;100651.19;622209;229;26072;-76
2021/06/03 05:54:32;;;;;;;4.43;3.57;;;;;;;22.60;72.65;100641.39;622816;230;23884;-75
2021/06/03 05:57:01;;;;;;;6.50;4.57;;;;;;;22.87;71.38;100646.84;624142;228;23904;-76
2021/06/03 05:59:29;;;;;;;6.50;4.40;;;;;;;22.38;73.48;100658.11;627891;227;23963;-75
2021/06/03 06:02:00;;;;;;;6.63;4.43;;;;;;;22.84;72.25;100649.12;638039;225;23842;-75
2021/06/03 06:06:59;;;;;;;5.37;4.23;;;;;;;23.69;69.50;100640.95;631936;225;23975;-76
2021/06/03 06:09:26;;;;;;;5.80;4.42;;;;;;;23.90;70.17;100648.98;614981;229;32929;-76
2021/06/03 06:11:54;;;;;;;5.20;3.93;;;;;;;23.15;71.44;100660.22;617689;229;25934;-76
2021/06/03 06:14:22;;;;;;;4.43;4.03;;;;;;;23.31;71.98;100667.63;631980;225;27079;-76
2021/06/03 06:16:50;;;;;;;4.40;4.00;;;;;;;23.67;71.77;100668.25;636897;223;24895;-76
2021/06/03 06:19:18;;;;;;;4.90;3.57;;;;;;;23.90;70.66;100671.05;623880;229;23874;-75
2021/06/03 06:21:46;;;;;;;4.47;4.07;;;;;;;23.59;69.66;100666.69;628798;225;23868;-76
2021/06/03 06:24:14;;;;;;;4.83;4.23;;;;;;;24.51;68.67;100675.98;624574;229;23845;-76
2021/06/03 06:26:42;;;;;;;4.57;3.73;;;;;;;25.40;65.86;100670.23;624374;229;23916;-76
2021/06/03 06:29:10;;;;;;;5.77;3.93;;;;;;;25.05;67.17;100667.53;635694;226;23866;-76
2021/06/03 06:31:38;;;;;;;6.40;4.03;;;;;;;25.64;65.47;100661.72;634615;225;23917;-76
2021/06/03 06:34:06;;;;;;;4.80;3.70;;;;;;;25.10;66.62;100672.99;634613;221;23825;-75
2021/06/03 06:36:34;;;;;;;6.40;4.40;;;;;;;25.57;63.69;100661.02;637208;225;23863;-76
2021/06/03 06:39:04;;;;;;;6.00;4.30;;;;;;;25.57;65.29;100662.34;625011;230;23903;-76
2021/06/03 06:41:30;;;;;;;7.30;4.40;;;;;;;24.75;66.97;100673.68;630137;226;32751;-76
2021/06/03 06:43:58;;;;;;;4.80;4.30;;;;;;;24.18;68.74;100685.66;628878;225;22737;-73
2021/06/03 06:46:26;;;;;;;4.83;3.23;;;;;;;24.32;67.80;100680.51;634448;225;23864;-73
2021/06/03 06:48:54;;;;;;;3.03;2.73;;;;;;;25.63;65.85;100676.90;638854;223;23897;-73
2021/06/03 06:51:21;;;;;;;6.50;3.80;;;;;;;24.87;66.77;100679.84;615852;229;24152;-73
2021/06/03 06:53:49;;;;;;;7.62;3.80;;;;;;;25.74;65.03;100671.28;628254;225;32880;-73
2021/06/03 06:56:17;;;;;;;5.55;3.70;;;;;;;26.37;63.62;100666.47;627184;225;33090;-76
2021/06/03 06:58:45;;;;;;;2.97;2.73;;;;;;;27.17;62.22;100662.28;634079;225;22728;-76
2021/06/03 07:01:13;;;;;;;3.30;2.50;;;;;;;25.81;62.91;100661.31;615989;229;23879;-76
2021/06/03 07:03:41;;;;;;;5.67;3.30;;;;;;;25.23;64.31;100662.12;634868;224;23895;-76
2021/06/03 07:06:09;;;;;;;3.60;2.77;;;;;;;25.33;64.09;100667.67;614901;230;23890;-76
2021/06/03 07:08:37;;;;;;;4.30;3.10;;;;;;;25.02;64.65;100671.46;628868;228;23895;-77
2021/06/03 07:11:05;;;;;;;4.58;2.90;;;;;;;25.91;64.05;100670.87;616490;229;33007;-77
2021/06/03 07:13:33;;;;;;;4.00;3.17;;;;;;;25.04;65.01;100674.70;636992;225;26930;-76
2021/06/03 07:16:01;;;;;;;3.07;2.83;;;;;;;25.84;64.34;100669.36;621167;229;23904;-76
2021/06/03 07:18:30;;;;;;;4.37;3.00;;;;;;;26.10;62.98;100666.70;628485;226;23885;-77
2021/06/03 07:20:59;;;;;;;6.47;2.77;;;;;;;25.82;63.52;100666.94;617904;226;23923;-76
2021/06/03 07:23:26;;;;;;;2.90;2.40;;;;;;;24.88;64.99;100668.69;618846;230;24924;-76
2021/06/03 07:25:56;;;;;;;4.13;2.70;;;;;;;24.18;67.06;100677.17;615486;229;24919;-76
2021/06/03 07:28:22;;;;;;;2.73;2.33;;;;;;;24.74;64.93;100669.92;633911;225;23903;-76
2021/06/03 07:30:50;;;;;;;3.40;3.10;;;;;;;24.00;67.54;100673.20;635085;225;23882;-76
2021/06/03 07:33:18;;;;;;;3.60;2.80;;;;;;;24.02;68.88;100688.41;635741;225;26081;-76
2021/06/03 07:35:47;;;;;;;4.40;3.20;;;;;;;23.99;68.15;100684.87;630288;226;23870;-76
2021/06/03 07:38:14;;;;;;;2.57;2.37;;;;;;;23.80;68.67;100691.22;619824;230;23914;-76
2021/06/03 07:40:42;;;;;;;3.83;2.57;;;;;;;24.15;68.72;100696.23;628950;226;23863;-77
2021/06/03 07:43:10;;;;;;;2.67;2.43;;;;;;;24.75;66.68;100682.18;626624;229;23894;-76
2021/06/03 07:45:39;;;;;;;3.80;2.80;;;;;;;24.60;66.98;100679.12;614824;230;23909;-76
2021/06/03 07:48:07;;;;;;;5.63;2.57;;;;;;;25.64;65.04;100691.03;621699;230;27097;-76
2021/06/03 07:50:36;;;;;;;5.07;2.40;;;;;;;26.17;63.70;100679.36;636067;221;27048;-76
2021/06/03 07:53:04;;;;;;;3.87;2.83;;;;;;;25.10;64.82;100675.13;616573;229;24005;-77
2021/06/03 07:55:32;;;;;;;3.70;2.40;;;;;;;25.79;63.06;100674.08;629483;225;23906;-73
2021/06/03 07:58:00;;;;;;;5.63;2.97;;;;;;;25.45;64.27;100684.47;635265;225;23881;-74
2021/06/03 08:00:28;;;;;;;5.80;2.80;;;;;;;25.78;63.39;100674.31;634869;224;23886;-74
2021/06/03 08:02:56;;;;;;;3.43;2.60;;;;;;;26.71;62.09;100671.34;639447;224;23877;-74
2021/06/03 08:05:24;;;;;;;4.50;2.73;;;;;;;25.81;61.70;100667.17;617778;229;24909;-73
2021/06/03 08:07:52;;;;;;;2.63;2.43;;;;;;;26.34;61.52;100658.39;635581;224;23880;-74
2021/06/03 08:10:21;;;;;;;2.90;2.30;;;;;;;25.85;62.92;100673.64;636246;221;25966;-76
2021/06/03 08:12:50;;;;;;;4.37;2.80;;;;;;;25.21;63.92;100679.38;625590;228;23888;-76
2021/06/03 08:15:17;;;;;;;2.83;2.63;;;;;;;25.05;65.31;100679.50;636559;225;24162;-76
2021/06/03 08:17:45;;;;;;;4.00;2.92;;;;;;;25.31;64.66;100680.93;611578;230;38261;-77
2021/06/03 08:20:13;;;;;;;5.20;2.60;;;;;;;25.59;64.88;100685.57;623525;229;22759;-76
2021/06/03 08:22:41;;;;;;;3.73;2.73;;;;;;;26.00;65.72;100678.77;615068;229;23841;-76
2021/06/03 08:25:09;;;;;;;2.83;2.60;;;;;;;25.89;63.37;100674.79;637786;225;28053;-76
2021/06/03 08:27:37;;;;;;;3.57;2.47;;;;;;;26.63;62.77;100672.56;637960;225;28098;-76
2021/06/03 08:30:06;;;;;;;6.17;2.60;;;;;;;27.38;61.06;100662.57;633685;224;24142;-78
2021/06/03 08:32:34;;;;;;;2.43;2.20;;;;;;;27.73;58.75;100653.75;632823;225;23894;-76
2021/06/03 08:35:02;;;;;;;7.03;2.37;;;;;;;27.03;59.52;100658.84;625128;229;23911;-76
2021/06/03 08:37:30;;;;;;;3.30;2.10;;;;;;;26.15;60.27;100660.94;610057;230;33194;-76
2021/06/03 08:39:58;;;;;;;3.73;2.20;;;;;;;25.87;60.47;100662.22;623540;228;23810;-76
2021/06/03 08:42:26;;;;;;;3.90;2.40;;;;;;;25.88;61.51;100667.31;618968;229;35088;-76
2021/06/03 08:44:54;;;;;;;4.97;2.57;;;;;;;25.63;62.09;100674.76;636262;225;22750;-76
2021/06/03 08:47:22;;;;;;;3.70;2.63;;;;;;;25.46;63.19;100682.09;620214;229;23927;-76
2021/06/03 08:49:50;;;;;;;4.13;2.30;;;;;;;26.12;61.80;100675.27;630404;226;23892;-74
2021/06/03 08:52:18;;;;;;;3.13;2.40;;;;;;;27.42;60.21;100663.16;615103;229;23878;-74
2021/06/03 08:54:46;;;;;;;4.90;2.40;;;;;;;26.22;61.51;100664.81;633213;225;23856;-75
2021/06/03 08:57:14;;;;;;;5.70;2.90;;;;;;;26.33;63.06;100673.30;638149;225;23860;-75
2021/06/03 08:59:42;;;;;;;3.83;2.47;;;;;;;26.10;61.92;100667.51;635615;225;23913;-75
2021/06/03 09:02:10;;;;;;;3.27;2.43;;;;;;;27.42;59.37;100660.49;618056;229;23903;-76
2021/06/03 09:04:38;;;;;;;3.00;2.80;;;;;;;27.67;58.30;100652.05;624998;225;23965;-75
2021/06/03 09:07:06;;;;;;;3.30;2.70;;;;;;;26.91;59.25;100660.22;632608;225;23875;-75
2021/06/03 09:09:34;;;;;;;4.73;2.10;;;;;;;27.86;59.13;100650.41;631491;225;24263;-75
2021/06/03 09:12:09;;;;;;;4.27;2.50;;;;;;;28.48;56.70;100654.09;626932;225;23850;-75
2021/06/03 09:14:37;;;;;;;3.77;2.37;;;;;;;28.47;55.36;100638.56;636986;225;23879;-75
2021/06/03 09:17:06;;;;;;;4.67;2.10;;;;;;;27.73;57.63;100643.06;637178;225;23895;-75
2021/06/03 09:19:33;;;;;;;3.05;2.30;;;;;;;27.64;56.24;100643.20;619701;229;33215;-75
2021/06/03 09:22:02;;;;;;;3.23;1.90;;;;;;;28.25;57.63;100649.80;622312;225;22741;-75
2021/06/03 09:24:31;;;;;;;2.40;1.90;;;;;;;27.27;58.82;100654.12;637640;225;23880;-75
2021/06/03 09:27:00;;;;;;;3.90;2.00;;;;;;;27.33;58.27;100658.50;633175;225;23894;-75
2021/06/03 09:29:27;;;;;;;2.87;2.20;;;;;;;28.38;56.51;100650.77;637029;225;23872;-75
2021/06/03 09:32:01;;;;;;;5.43;2.50;;;;;;;28.80;54.82;100644.20;630949;225;23867;-75
2021/06/03 09:34:29;;;;;;;3.03;2.20;;;;;;;29.60;52.72;100642.41;636880;225;27066;-75
2021/06/03 09:36:58;;;;;;;4.87;2.33;;;;;;;28.90;54.46;100640.31;635449;225;23878;-75
2021/06/03 09:39:25;;;;;;;5.33;2.77;;;;;;;27.62;56.81;100651.97;626516;229;23841;-76
2021/06/03 09:41:55;;;;;;;3.60;2.30;;;;;;;27.79;56.68;100647.94;622067;225;23881;-77
2021/06/03 09:44:26;;;;;;;3.10;2.80;;;;;;;27.72;57.99;100650.77;619019;229;23966;-76
2021/06/03 09:46:54;;;;;;;3.93;2.10;;;;;;;28.55;56.17;100646.12;614840;230;23904;-76
2021/06/03 09:49:24;;;;;;;2.33;2.12;;;;;;;29.52;54.25;100650.92;628713;226;33407;-77
2021/06/03 09:51:53;;;;;;;3.05;2.35;;;;;;;29.84;52.40;100636.05;631791;225;32975;-77
2021/06/03 09:54:21;;;;;;;4.50;2.20;;;;;;;28.64;56.28;100649.97;637925;225;22731;-77
2021/06/03 09:56:51;;;;;;;4.80;2.30;;;;;;;28.35;55.25;100648.08;613878;230;24023;-77
2021/06/03 09:59:20;;;;;;;2.20;2.07;;;;;;;28.38;54.87;100650.24;637535;225;23954;-77
2021/06/03 10:01:53;;;;;;;3.07;2.30;;;;;;;28.60;55.64;100650.73;636569;225;23864;-77
2021/06/03 10:04:24;;;;;;;3.03;2.40;;;;;;;28.72;55.50;100641.20;616368;229;23894;-77
2021/06/03 10:06:54;;;;;;;3.03;2.50;;;;;;;28.74;55.83;100649.25;618484;229;24108;-77
2021/06/03 10:09:38;;;;;;;7.33;2.80;;;;;;;28.98;55.63;100645.71;615934;229;23909;-77
2021/06/03 10:12:06;;;;;;;4.17;2.70;;;;;;;27.89;56.69;100651.27;612694;229;32890;-77
2021/06/03 10:14:35;;;;;;;2.50;2.30;;;;;;;28.26;56.61;100649.58;617560;230;22779;-77
2021/06/03 10:17:19;;;;;;;3.80;2.30;;;;;;;29.09;55.42;100645.27;624440;229;23916;-77
2021/06/03 10:19:47;;;;;;;4.03;2.40;;;;;;;29.69;55.07;100644.84;630047;225;23847;-77
2021/06/03 10:22:19;;;;;;;3.90;2.37;;;;;;;29.75;53.90;100636.30;625414;227;23888;-76
2021/06/03 10:24:49;;;;;;;3.50;2.20;;;;;;;30.26;52.81;100629.23;619786;228;33136;-76
2021/06/03 10:27:16;;;;;;;3.60;2.50;;;;;;;30.03;53.72;100633.19;629960;226;22742;-76
2021/06/03 10:29:44;;;;;;;3.77;2.47;;;;;;;30.32;53.23;100624.16;630516;224;23878;-76
2021/06/03 10:32:12;;;;;;;5.17;2.30;;;;;;;30.95;50.63;100623.93;633906;221;23891;-76
2021/06/03 10:34:40;;;;;;;4.13;2.40;;;;;;;29.78;53.42;100623.16;627048;226;23871;-77
2021/06/03 10:37:08;;;;;;;2.73;2.50;;;;;;;28.61;55.30;100635.75;627880;226;23898;-76
2021/06/03 10:39:36;;;;;;;5.00;3.00;;;;;;;28.29;56.60;100643.74;629683;226;23903;-76
2021/06/03 10:42:04;;;;;;;3.53;2.43;;;;;;;29.66;54.57;100633.84;616824;229;23906;-76
2021/06/03 10:44:32;;;;;;;6.93;2.30;;;;;;;29.89;52.21;100614.62;629300;227;24151;-76
2021/06/03 10:47:00;;;;;;;3.07;2.50;;;;;;;29.54;52.94;100617.42;638562;225;23882;-77
2021/06/03 10:49:31;;;;;;;2.30;2.10;;;;;;;30.08;52.94;100609.07;637743;223;23866;-76
2021/06/03 10:51:56;;;;;;;3.67;2.63;;;;;;;30.62;52.94;100611.32;624545;226;23966;-76
2021/06/03 10:54:38;;;;;;;2.83;2.53;;;;;;;30.54;53.24;100601.61;616128;229;24929;-77
2021/06/03 10:57:07;;;;;;;3.90;2.73;;;;;;;30.34;52.40;100611.27;625358;228;23980;-76
2021/06/03 10:59:36;;;;;;;4.10;2.50;;;;;;;30.94;50.96;100603.51;633115;225;23893;-77
2021/06/03 11:02:04;;;;;;;3.93;2.10;;;;;;;31.24;51.66;100600.79;624930;228;23861;-77
2021/06/03 11:04:32;;;;;;;4.80;2.23;;;;;;;31.25;50.99;100598.40;636343;226;23866;-77
2021/06/03 11:07:00;;;;;;;3.03;2.63;;;;;;;31.52;50.94;100598.55;633127;225;24167;-77
2021/06/03 11:09:28;;;;;;;2.83;2.33;;;;;;;31.67;50.73;100599.03;626353;225;23960;-77
2021/06/03 11:12:08;;;;;;;2.30;2.10;;;;;;;30.77;51.36;100594.94;625614;226;23861;-76
2021/06/03 11:14:57;;;;;;;3.63;2.50;;;;;;;30.92;51.04;100598.41;630911;225;23876;-77
2021/06/03 11:17:45;;;;;;;3.80;2.13;;;;;;;31.29;52.98;100602.14;653752;217;28604;-76
2021/06/03 11:20:13;;;;;;;3.43;2.47;;;;;;;31.55;51.34;100600.72;641446;220;23884;-76
2021/06/03 11:22:41;;;;;;;3.00;2.40;;;;;;;31.58;51.59;100593.44;648293;220;26018;-72
2021/06/03 11:25:09;;;;;;;2.30;2.10;;;;;;;31.79;50.69;100592.28;647269;220;23858;-75
2021/06/03 11:27:39;;;;;;;3.13;2.63;;;;;;;32.04;50.45;100595.92;646269;220;23860;-76
2021/06/03 11:30:10;;;;;;;2.60;1.90;;;;;;;29.97;53.82;100603.37;631109;225;23876;-75
2021/06/03 11:32:39;;;;;;;4.13;2.60;;;;;;;30.17;53.71;100607.22;649571;221;23851;-75